Terminal Aerodrome Forecast
Issued by NWS

Home | Current Version | Previous Version | Graphics & Text | Print | Product List | Glossary On
Versions: 1 2 3 4 5 6 7 8 9 10 11 12 13 14 15 16 17 18 19 20 21 22 23 24
000
FTUS42 KMHX 151400 AAB
TAFPGV
TAF AMD
KPGV 151440Z 1515/1612 22014G22KT P6SM VCSH SCT060 BKN090 BKN110
     FM151900 23015G22KT P6SM SHRA VCTS SCT025CB OVC110
     FM160100 34018G26KT P6SM -RA SCT007 BKN015
     FM160500 36014G22KT P6SM SCT025
      AMD LTD TO CLD VIS AND WIND=

USA.gov is the U.S. government's official web portal to all federal, state and local government web resources and services.